sensor_id;sensor_type;location;lat;lon;timestamp;pressure;altitude;pressure_sealevel;temperature;humidity
43691;BME280;29293;52.190;21.226;2023-03-16T00:06:39;100547.30;;;-1.87;100.00
43691;BME280;29293;52.190;21.226;2023-03-16T00:21:46;100554.83;;;-2.18;100.00
43691;BME280;29293;52.190;21.226;2023-03-16T00:36:53;100564.60;;;-2.34;100.00
43691;BME280;29293;52.190;21.226;2023-03-16T00:52:01;100576.92;;;-2.54;100.00
43691;BME280;29293;52.190;21.226;2023-03-16T01:07:06;100589.56;;;-2.73;100.00
43691;BME280;29293;52.190;21.226;2023-03-16T01:22:14;100588.65;;;-2.88;100.00
43691;BME280;29293;52.190;21.226;2023-03-16T01:37:21;100600.19;;;-2.96;100.00
43691;BME280;29293;52.190;21.226;2023-03-16T01:52:32;100611.69;;;-3.05;100.00
43691;BME280;29293;52.190;21.226;2023-03-16T02:07:45;100607.80;;;-3.22;100.00
43691;BME280;29293;52.190;21.226;2023-03-16T02:22:53;100621.48;;;-3.36;100.00
43691;BME280;29293;52.190;21.226;2023-03-16T02:38:00;100627.79;;;-3.54;100.00
43691;BME280;29293;52.190;21.226;2023-03-16T02:53:06;100638.77;;;-3.69;100.00
43691;BME280;29293;52.190;21.226;2023-03-16T03:08:13;100654.73;;;-3.76;100.00
43691;BME280;29293;52.190;21.226;2023-03-16T03:23:20;100670.23;;;-3.89;100.00
43691;BME280;29293;52.190;21.226;2023-03-16T03:38:28;100679.36;;;-3.98;100.00
43691;BME280;29293;52.190;21.226;2023-03-16T03:53:34;100702.31;;;-4.16;100.00
43691;BME280;29293;52.190;21.226;2023-03-16T04:08:41;100716.13;;;-4.23;100.00
43691;BME280;29293;52.190;21.226;2023-03-16T04:23:47;100722.77;;;-4.30;100.00
43691;BME280;29293;52.190;21.226;2023-03-16T04:38:54;100729.60;;;-4.32;100.00
43691;BME280;29293;52.190;21.226;2023-03-16T04:54:01;100744.47;;;-4.40;100.00
43691;BME280;29293;52.190;21.226;2023-03-16T05:09:08;100761.30;;;-4.34;100.00
43691;BME280;29293;52.190;21.226;2023-03-16T05:24:15;100764.52;;;-4.19;100.00
43691;BME280;29293;52.190;21.226;2023-03-16T05:39:22;100775.58;;;-4.07;100.00
43691;BME280;29293;52.190;21.226;2023-03-16T05:54:28;100780.41;;;-3.97;100.00
43691;BME280;29293;52.190;21.226;2023-03-16T06:09:35;100788.60;;;-3.62;100.00
43691;BME280;29293;52.190;21.226;2023-03-16T06:24:42;100797.98;;;-2.99;100.00
43691;BME280;29293;52.190;21.226;2023-03-16T06:39:49;100806.18;;;-2.36;100.00
43691;BME280;29293;52.190;21.226;2023-03-16T06:54:56;100816.59;;;-1.75;100.00
43691;BME280;29293;52.190;21.226;2023-03-16T07:10:07;100823.60;;;-1.03;100.00
43691;BME280;29293;52.190;21.226;2023-03-16T07:25:14;100826.33;;;-0.03;100.00
43691;BME280;29293;52.190;21.226;2023-03-16T07:40:21;100832.25;;;0.91;100.00
43691;BME280;29293;52.190;21.226;2023-03-16T07:55:28;100821.20;;;1.77;100.00
43691;BME280;29293;52.190;21.226;2023-03-16T08:26:13;100843.39;;;3.19;100.00
43691;BME280;29293;52.190;21.226;2023-03-16T08:41:23;100850.63;;;3.48;100.00
43691;BME280;29293;52.190;21.226;2023-03-16T08:56:30;100853.83;;;3.92;100.00
43691;BME280;29293;52.190;21.226;2023-03-16T09:11:38;100859.76;;;4.29;100.00
43691;BME280;29293;52.190;21.226;2023-03-16T09:26:45;100866.20;;;4.99;100.00
43691;BME280;29293;52.190;21.226;2023-03-16T09:41:56;100876.79;;;5.46;100.00
43691;BME280;29293;52.190;21.226;2023-03-16T09:57:14;100880.09;;;5.30;100.00
43691;BME280;29293;52.190;21.226;2023-03-16T10:12:28;100883.02;;;5.29;100.00
43691;BME280;29293;52.190;21.226;2023-03-16T10:27:39;100889.52;;;5.29;100.00
43691;BME280;29293;52.190;21.226;2023-03-16T10:42:47;100895.34;;;4.94;100.00
43691;BME280;29293;52.190;21.226;2023-03-16T10:57:55;100893.26;;;4.95;100.00
43691;BME280;29293;52.190;21.226;2023-03-16T11:13:10;100887.81;;;5.91;100.00
43691;BME280;29293;52.190;21.226;2023-03-16T11:28:27;100884.88;;;6.04;100.00
43691;BME280;29293;52.190;21.226;2023-03-16T11:43:50;100876.44;;;6.55;100.00
43691;BME280;29293;52.190;21.226;2023-03-16T11:59:20;100867.05;;;6.98;100.00
43691;BME280;29293;52.190;21.226;2023-03-16T12:14:33;100867.76;;;6.73;100.00
43691;BME280;29293;52.190;21.226;2023-03-16T12:29:50;100893.83;;;5.58;100.00
43691;BME280;29293;52.190;21.226;2023-03-16T12:45:00;100898.87;;;5.25;100.00
43691;BME280;29293;52.190;21.226;2023-03-16T13:00:13;100903.71;;;5.31;100.00
43691;BME280;29293;52.190;21.226;2023-03-16T13:15:28;100906.37;;;5.53;100.00
43691;BME280;29293;52.190;21.226;2023-03-16T13:30:37;100915.98;;;5.68;100.00
43691;BME280;29293;52.190;21.226;2023-03-16T13:45:49;100919.33;;;5.73;100.00
43691;BME280;29293;52.190;21.226;2023-03-16T14:00:58;100921.38;;;5.81;100.00
43691;BME280;29293;52.190;21.226;2023-03-16T14:16:12;100919.97;;;6.14;100.00
43691;BME280;29293;52.190;21.226;2023-03-16T14:31:21;100916.99;;;6.31;100.00
43691;BME280;29293;52.190;21.226;2023-03-16T14:46:29;100927.91;;;6.03;100.00
43691;BME280;29293;52.190;21.226;2023-03-16T15:01:37;100935.02;;;5.64;100.00
43691;BME280;29293;52.190;21.226;2023-03-16T15:16:44;100942.70;;;5.45;100.00
43691;BME280;29293;52.190;21.226;2023-03-16T15:31:50;100947.55;;;5.28;100.00
43691;BME280;29293;52.190;21.226;2023-03-16T15:47:28;100953.58;;;5.10;100.00
43691;BME280;29293;52.190;21.226;2023-03-16T16:02:34;100957.13;;;4.93;100.00
43691;BME280;29293;52.190;21.226;2023-03-16T16:17:41;100972.97;;;4.83;100.00
43691;BME280;29293;52.190;21.226;2023-03-16T16:32:49;100989.14;;;4.63;100.00
43691;BME280;29293;52.190;21.226;2023-03-16T16:47:58;101006.67;;;4.04;100.00
43691;BME280;29293;52.190;21.226;2023-03-16T17:03:20;101022.92;;;3.34;100.00
43691;BME280;29293;52.190;21.226;2023-03-16T17:18:28;101039.95;;;2.72;100.00
43691;BME280;29293;52.190;21.226;2023-03-16T17:33:38;101051.30;;;2.07;100.00
43691;BME280;29293;52.190;21.226;2023-03-16T17:48:44;101064.10;;;1.41;100.00
43691;BME280;29293;52.190;21.226;2023-03-16T18:03:51;101083.79;;;0.81;100.00
43691;BME280;29293;52.190;21.226;2023-03-16T18:19:03;101094.26;;;0.33;100.00
43691;BME280;29293;52.190;21.226;2023-03-16T18:34:17;101109.02;;;-0.11;100.00
43691;BME280;29293;52.190;21.226;2023-03-16T18:49:30;101129.98;;;-0.48;100.00
43691;BME280;29293;52.190;21.226;2023-03-16T19:04:38;101139.21;;;-0.89;100.00
43691;BME280;29293;52.190;21.226;2023-03-16T19:19:45;101147.52;;;-1.18;100.00
43691;BME280;29293;52.190;21.226;2023-03-16T19:34:52;101156.55;;;-1.41;100.00
43691;BME280;29293;52.190;21.226;2023-03-16T19:49:59;101174.20;;;-1.56;100.00
43691;BME280;29293;52.190;21.226;2023-03-16T20:05:10;101185.59;;;-1.46;100.00
43691;BME280;29293;52.190;21.226;2023-03-16T20:20:25;101195.75;;;-1.26;100.00
43691;BME280;29293;52.190;21.226;2023-03-16T20:35:32;101193.73;;;-1.08;100.00
43691;BME280;29293;52.190;21.226;2023-03-16T20:50:39;101194.91;;;-0.90;100.00
43691;BME280;29293;52.190;21.226;2023-03-16T21:05:46;101198.04;;;-0.76;100.00
43691;BME280;29293;52.190;21.226;2023-03-16T21:20:53;101208.02;;;-0.71;100.00
43691;BME280;29293;52.190;21.226;2023-03-16T21:36:04;101208.52;;;-0.73;100.00
43691;BME280;29293;52.190;21.226;2023-03-16T21:51:14;101205.25;;;-0.98;100.00
43691;BME280;29293;52.190;21.226;2023-03-16T22:06:23;101204.30;;;-1.27;100.00
43691;BME280;29293;52.190;21.226;2023-03-16T22:21:34;101206.33;;;-1.39;100.00
43691;BME280;29293;52.190;21.226;2023-03-16T22:36:41;101213.94;;;-1.42;100.00
43691;BME280;29293;52.190;21.226;2023-03-16T22:51:48;101218.20;;;-1.35;100.00
43691;BME280;29293;52.190;21.226;2023-03-16T23:06:56;101223.94;;;-1.49;100.00
43691;BME280;29293;52.190;21.226;2023-03-16T23:22:05;101235.39;;;-1.72;100.00
43691;BME280;29293;52.190;21.226;2023-03-16T23:37:12;101249.61;;;-2.09;100.00
